Time;durP1;ratioP1;P1;durP2;ratioP2;P2;SDS_P1;SDS_P2;PMS_P1;PMS_P2;Temp;Humidity;BMP_temperature;BMP_pressure;BME280_temperature;BME280_humidity;BME280_pressure;Samples;Min_cycle;Max_cycle;Signal;HPM_P1;HPM_P2
2022/06/03 00:03:38;;;;;;;;;;;;;;;-145.66;100.00;59599.19;10314750;28;20288;-63
2022/06/03 00:09:00;;;;;;;;;;;;;;;-145.66;100.00;59599.19;10334540;28;19922;-63
2022/06/03 00:14:02;;;;;;;;;;;;;;;-145.66;100.00;59599.19;10334552;28;20293;-63
2022/06/03 00:19:11;;;;;;;;;;;;;;;-145.66;100.00;59599.19;10334070;28;19954;-63
2022/06/03 00:24:28;;;;;;;;;;;;;;;-145.66;100.00;59599.19;10334125;28;19922;-63
2022/06/03 00:29:49;;;;;;;;;;;;;;;-145.66;100.00;59599.19;10334151;28;19922;-63
2022/06/03 00:34:51;;;;;;;;;;;;;;;-145.66;100.00;59599.19;10333935;28;19926;-63
2022/06/03 00:39:59;;;;;;;;;;;;;;;-145.66;100.00;59599.19;10333647;28;20379;-63
2022/06/03 00:45:08;;;;;;;;;;;;;;;-145.66;100.00;59599.19;10335251;28;19921;-63
2022/06/03 00:50:17;;;;;;;;;;;;;;;-145.66;100.00;59599.19;10342527;28;20009;-63
2022/06/03 00:55:39;;;;;;;;;;;;;;;-145.66;100.00;59599.19;10341855;28;19922;-63
2022/06/03 01:00:54;;;;;;;;;;;;;;;-145.66;100.00;59599.19;10341918;28;19926;-63
2022/06/03 01:06:02;;;;;;;;;;;;;;;-145.66;100.00;59599.19;10342597;28;19935;-63
2022/06/03 01:11:07;;;;;;;;;;;;;;;-145.66;100.00;59599.19;10342109;28;19922;-63
2022/06/03 01:16:25;;;;;;;;;;;;;;;-145.66;100.00;59599.19;10339797;28;19929;-63
2022/06/03 01:21:32;;;;;;;;;;;;;;;-145.66;100.00;59599.19;10341455;28;19929;-63
2022/06/03 01:26:53;;;;;;;;;;;;;;;-145.66;100.00;59599.19;10340062;28;19928;-63
2022/06/03 01:31:55;;;;;;;;;;;;;;;-145.66;100.00;59599.19;10340317;28;20357;-63
2022/06/03 01:37:09;;;;;;;;;;;;;;;-145.66;100.00;59599.19;10340965;28;19929;-63
2022/06/03 01:42:20;;;;;;;;;;;;;;;-145.66;100.00;59599.19;10338922;28;19926;-63
2022/06/03 01:47:25;;;;;;;;;;;;;;;-145.66;100.00;59599.19;10339115;28;19925;-63
2022/06/03 01:52:30;;;;;;;;;;;;;;;-145.66;100.00;59599.19;10340092;28;19932;-63
2022/06/03 01:57:46;;;;;;;;;;;;;;;-145.66;100.00;59599.19;10338215;28;19933;-63
2022/06/03 02:03:08;;;;;;;;;;;;;;;-145.66;100.00;59599.19;10338499;28;19921;-63
2022/06/03 02:08:22;;;;;;;;;;;;;;;-145.66;100.00;59599.19;10340017;28;19922;-63
2022/06/03 02:13:24;;;;;;;;;;;;;;;-145.66;100.00;59599.19;10404618;22;20322;-65
2022/06/03 02:18:46;;;;;;;;;;;;;;;-145.66;100.00;59599.19;10461590;28;19927;-65
2022/06/03 02:23:51;;;;;;;;;;;;;;;-145.66;100.00;59599.19;10461273;28;20359;-64
2022/06/03 02:34:49;;;;;;;;;;;;;;;-145.66;100.00;59599.19;10452631;28;20298;-65
2022/06/03 02:40:11;;;;;;;;;;;;;;;-145.66;100.00;59599.19;10443166;28;19920;-65
2022/06/03 02:45:20;;;;;;;;;;;;;;;-145.66;100.00;59599.19;10460750;28;19932;-65
2022/06/03 02:50:29;;;;;;;;;;;;;;;-145.66;100.00;59599.19;10460373;28;20355;-65
2022/06/03 02:55:44;;;;;;;;;;;;;;;-145.66;100.00;59599.19;10460112;28;19921;-65
2022/06/03 03:01:04;;;;;;;;;;;;;;;-145.66;100.00;59599.19;10442728;28;19928;-65
2022/06/03 03:06:22;;;;;;;;;;;;;;;-145.66;100.00;59599.19;10460239;28;19931;-65
2022/06/03 03:11:28;;;;;;;;;;;;;;;-145.66;100.00;59599.19;10458961;28;19928;-65
2022/06/03 03:16:43;;;;;;;;;;;;;;;-145.66;100.00;59599.19;10459124;28;20409;-65
2022/06/03 03:22:01;;;;;;;;;;;;;;;-145.66;100.00;59599.19;10458796;28;19921;-65
2022/06/03 03:27:12;;;;;;;;;;;;;;;-145.66;100.00;59599.19;10459746;28;19927;-65
2022/06/03 03:32:20;;;;;;;;;;;;;;;-145.66;100.00;59599.19;10458676;28;19999;-65
2022/06/03 03:37:41;;;;;;;;;;;;;;;-145.66;100.00;59599.19;10441070;28;19921;-65
2022/06/03 03:42:48;;;;;;;;;;;;;;;-145.66;100.00;59599.19;10457551;28;20283;-64
2022/06/03 03:48:09;;;;;;;;;;;;;;;-145.66;100.00;59599.19;10440578;28;19942;-65
2022/06/03 03:53:41;;;;;;;;;;;;;;;-145.66;100.00;59599.19;10458378;28;19920;-65
2022/06/03 03:59:02;;;;;;;;;;;;;;;-145.66;100.00;59599.19;10441585;28;20281;-64
2022/06/03 04:04:24;;;;;;;;;;;;;;;-145.66;100.00;59599.19;10457786;28;19925;-65
2022/06/03 04:09:40;;;;;;;;;;;;;;;-145.66;100.00;59599.19;10458165;28;19975;-65
2022/06/03 04:15:02;;;;;;;;;;;;;;;-145.66;100.00;59599.19;10415075;28;19921;-65
2022/06/03 04:20:10;;;;;;;;;;;;;;;-145.66;100.00;59599.19;10415456;28;20399;-64
2022/06/03 04:25:28;;;;;;;;;;;;;;;-145.66;100.00;59599.19;10415424;28;19943;-65
2022/06/03 04:30:50;;;;;;;;;;;;;;;-145.66;100.00;59599.19;10416195;28;19921;-65
2022/06/03 04:36:11;;;;;;;;;;;;;;;-145.66;100.00;59599.19;10334817;28;19921;-65
2022/06/03 04:41:13;;;;;;;;;;;;;;;-145.66;100.00;59599.19;10379160;28;19928;-65
2022/06/03 04:46:34;;;;;;;;;;;;;;;-145.66;100.00;59599.19;10415787;28;19921;-65
2022/06/03 04:51:55;;;;;;;;;;;;;;;-145.66;100.00;59599.19;10414282;28;19925;-65
2022/06/03 04:57:16;;;;;;;;;;;;;;;-145.66;100.00;59599.19;10415559;28;19921;-65
2022/06/03 05:02:37;;;;;;;;;;;;;;;-145.66;100.00;59599.19;10396786;28;20368;-65
2022/06/03 05:07:58;;;;;;;;;;;;;;;-145.66;100.00;59599.19;10414781;28;19921;-65
2022/06/03 05:13:00;;;;;;;;;;;;;;;-145.66;100.00;59599.19;10387772;28;20364;-65
2022/06/03 05:18:05;;;;;;;;;;;;;;;-145.66;100.00;59599.19;10414072;28;19921;-65
2022/06/03 05:23:26;;;;;;;;;;;;;;;-145.66;100.00;59599.19;10415168;28;20011;-65
2022/06/03 05:28:44;;;;;;;;;;;;;;;-145.66;100.00;59599.19;10415019;28;19928;-65
2022/06/03 05:33:49;;;;;;;;;;;;;;;-145.66;100.00;59599.19;10417240;28;19927;-65
2022/06/03 05:39:10;;;;;;;;;;;;;;;-145.66;100.00;59599.19;10421900;28;20276;-65
2022/06/03 05:44:16;;;;;;;;;;;;;;;-145.66;100.00;59599.19;10421461;28;19921;-65
2022/06/03 05:49:26;;;;;;;;;;;;;;;-145.66;100.00;59599.19;10420479;28;20288;-65
2022/06/03 05:54:31;;;;;;;;;;;;;;;-145.66;100.00;59599.19;10420830;28;19921;-65
2022/06/03 05:59:38;;;;;;;;;;;;;;;-145.66;100.00;59599.19;10421879;28;19932;-65
2022/06/03 06:04:50;;;;;;;;;;;;;;;-145.66;100.00;59599.19;10421115;28;19944;-65
2022/06/03 06:09:54;;;;;;;;;;;;;;;-145.66;100.00;59599.19;10419710;28;20368;-65
2022/06/03 06:15:14;;;;;;;;;;;;;;;-145.66;100.00;59599.19;10434726;28;19920;-65
2022/06/03 06:20:35;;;;;;;;;;;;;;;-145.66;100.00;59599.19;10461736;28;19920;-65
2022/06/03 06:25:39;;;;;;;;;;;;;;;-145.66;100.00;59599.19;10462262;28;19920;-65
2022/06/03 06:30:44;;;;;;;;;;;;;;;-145.66;100.00;59599.19;10444477;28;19927;-65
2022/06/03 06:36:01;;;;;;;;;;;;;;;-145.66;100.00;59599.19;10461673;28;19921;-65
2022/06/03 06:41:03;;;;;;;;;;;;;;;-145.66;100.00;59599.19;10460811;28;19921;-65
2022/06/03 06:46:15;;;;;;;;;;;;;;;-145.66;100.00;59599.19;10460948;28;19928;-65
2022/06/03 06:51:36;;;;;;;;;;;;;;;-145.66;100.00;59599.19;10444261;28;19920;-65
2022/06/03 06:56:46;;;;;;;;;;;;;;;-145.66;100.00;59599.19;10460929;28;19928;-65
2022/06/03 07:01:50;;;;;;;;;;;;;;;-145.66;100.00;59599.19;10443173;28;19920;-65
2022/06/03 07:07:03;;;;;;;;;;;;;;;-145.66;100.00;59599.19;10443042;28;20372;-65
2022/06/03 07:12:06;;;;;;;;;;;;;;;-145.66;100.00;59599.19;10434304;28;19921;-65
2022/06/03 07:22:30;;;;;;;;;;;;;;;-145.66;100.00;59599.19;10418688;28;19921;-65
2022/06/03 07:27:42;;;;;;;;;;;;;;;-145.66;100.00;59599.19;10418504;28;19921;-65
2022/06/03 07:32:47;;;;;;;;;;;;;;;-145.66;100.00;59599.19;10400223;28;20384;-66
2022/06/03 07:37:55;;;;;;;;;;;;;;;-145.66;100.00;59599.19;10384138;28;19921;-65
2022/06/03 07:43:09;;;;;;;;;;;;;;;-145.66;100.00;59599.19;10400400;28;19921;-65
2022/06/03 07:48:16;;;;;;;;;;;;;;;-145.66;100.00;59599.19;10417638;28;20007;-66
2022/06/03 07:53:35;;;;;;;;;;;;;;;-145.66;100.00;59599.19;10416842;28;20363;-66
2022/06/03 07:58:40;;;;;;;;;;;;;;;-145.66;100.00;59599.19;10399039;28;19928;-66
2022/06/03 08:03:43;;;;;;;;;;;;;;;-145.66;100.00;59599.19;10399356;28;19928;-66
2022/06/03 08:14:06;;;;;;;;;;;;;;;-145.66;100.00;59599.19;10416030;28;19921;-66
2022/06/03 08:19:12;;;;;;;;;;;;;;;-145.66;100.00;59599.19;10416502;28;19921;-66
2022/06/03 08:24:44;;;;;;;;;;;;;;;-145.66;100.00;59599.19;10415852;28;20463;-66
2022/06/03 08:29:48;;;;;;;;;;;;;;;-145.66;100.00;59599.19;10390901;28;19927;-66
2022/06/03 08:34:51;;;;;;;;;;;;;;;-145.66;100.00;59599.19;10397901;28;19921;-66
2022/06/03 08:39:56;;;;;;;;;;;;;;;-145.66;100.00;59599.19;10415486;28;20264;-66
2022/06/03 08:45:10;;;;;;;;;;;;;;;-145.66;100.00;59599.19;10414307;28;20292;-66
2022/06/03 08:50:29;;;;;;;;;;;;;;;-145.66;100.00;59599.19;10415135;28;19921;-66
2022/06/03 08:55:50;;;;;;;;;;;;;;;-145.66;100.00;59599.19;10414118;28;19943;-66
2022/06/03 09:01:02;;;;;;;;;;;;;;;-145.66;100.00;59599.19;10415735;28;19932;-66
2022/06/03 09:06:19;;;;;;;;;;;;;;;-145.66;100.00;59599.19;10417081;28;19932;-65
2022/06/03 09:11:25;;;;;;;;;;;;;;;-145.66;100.00;59599.19;10405950;28;19928;-65
2022/06/03 09:16:27;;;;;;;;;;;;;;;-145.66;100.00;59599.19;10422935;28;19974;-65
2022/06/03 09:21:33;;;;;;;;;;;;;;;-145.66;100.00;59599.19;10422814;28;20266;-65
2022/06/03 09:26:37;;;;;;;;;;;;;;;-145.66;100.00;59599.19;10421683;28;20029;-65
2022/06/03 09:31:41;;;;;;;;;;;;;;;-145.66;100.00;59599.19;10423093;28;19921;-66
2022/06/03 09:36:43;;;;;;;;;;;;;;;-145.66;100.00;59599.19;10421639;28;19921;-65
2022/06/03 09:41:46;;;;;;;;;;;;;;;-145.66;100.00;59599.19;10422798;28;19936;-66
2022/06/03 09:46:50;;;;;;;;;;;;;;;-145.66;100.00;59599.19;10420901;28;19921;-66
2022/06/03 09:51:56;;;;;;;;;;;;;;;-145.66;100.00;59599.19;10420657;28;20501;-66
2022/06/03 09:57:03;;;;;;;;;;;;;;;-145.66;100.00;59599.19;10422277;28;19921;-66
2022/06/03 10:02:06;;;;;;;;;;;;;;;-145.66;100.00;59599.19;10420297;28;19921;-66
2022/06/03 10:07:09;;;;;;;;;;;;;;;-145.66;100.00;59599.19;10421838;28;19921;-66
2022/06/03 10:17:36;;;;;;;;;;;;;;;-145.66;100.00;59599.19;10418868;28;19921;-66
2022/06/03 10:22:41;;;;;;;;;;;;;;;-145.66;100.00;59599.19;10421196;28;19925;-66
2022/06/03 10:27:44;;;;;;;;;;;;;;;-145.66;100.00;59599.19;10419239;28;19921;-66
2022/06/03 10:32:49;;;;;;;;;;;;;;;-145.66;100.00;59599.19;10420690;28;19928;-66
2022/06/03 10:37:56;;;;;;;;;;;;;;;-145.66;100.00;59599.19;10419816;28;20367;-66
2022/06/03 10:43:03;;;;;;;;;;;;;;;-145.66;100.00;59599.19;10419805;28;19963;-66
2022/06/03 10:48:19;;;;;;;;;;;;;;;-145.66;100.00;59599.19;10420190;28;19929;-66
2022/06/03 11:04:05;;;;;;;;;;;;;;;-145.66;100.00;59599.19;10419482;28;20368;-66
2022/06/03 11:09:08;;;;;;;;;;;;;;;-145.66;100.00;59599.19;10419401;28;19921;-66
2022/06/03 11:14:27;;;;;;;;;;;;;;;-145.66;100.00;59599.19;10417429;28;19925;-66
2022/06/03 11:19:52;;;;;;;;;;;;;;;-145.66;100.00;59599.19;10417792;28;19921;-66
2022/06/03 11:25:08;;;;;;;;;;;;;;;-145.66;100.00;59599.19;10405483;28;19921;-66
2022/06/03 11:30:36;;;;;;;;;;;;;;;-145.66;100.00;59599.19;10399437;28;19928;-66
2022/06/03 11:35:41;;;;;;;;;;;;;;;-145.66;100.00;59599.19;10400213;28;19928;-66
2022/06/03 11:40:45;;;;;;;;;;;;;;;-145.66;100.00;59599.19;10400637;28;19927;-66
2022/06/03 11:45:52;;;;;;;;;;;;;;;-145.66;100.00;59599.19;10400467;28;20027;-67
2022/06/03 11:50:54;;;;;;;;;;;;;;;-145.66;100.00;59599.19;10417813;28;19921;-66
2022/06/03 11:56:00;;;;;;;;;;;;;;;-145.66;100.00;59599.19;10399448;28;19921;-66
2022/06/03 12:01:03;;;;;;;;;;;;;;;-145.66;100.00;59599.19;10417368;28;19921;-67
2022/06/03 12:06:08;;;;;;;;;;;;;;;-145.66;100.00;59599.19;10399165;28;20379;-66
2022/06/03 12:13:14;;;;;;;;;;;;;;;-145.66;100.00;59599.19;10417010;28;19921;-66
2022/06/03 12:16:55;;;;;;;;;;;;;;;-145.66;100.00;59599.19;10408990;28;19921;-66
2022/06/03 12:21:57;;;;;;;;;;;;;;;-145.66;100.00;59599.19;10416102;28;20284;-66
2022/06/03 12:27:01;;;;;;;;;;;;;;;-145.66;100.00;59599.19;10414967;28;19921;-66
2022/06/03 12:32:13;;;;;;;;;;;;;;;-145.66;100.00;59599.19;10415786;28;19927;-66
2022/06/03 12:37:22;;;;;;;;;;;;;;;-145.66;100.00;59599.19;10415152;28;19925;-67
2022/06/03 12:42:31;;;;;;;;;;;;;;;-145.66;100.00;59599.19;10415842;28;19921;-66
2022/06/03 12:47:33;;;;;;;;;;;;;;;-145.66;100.00;59599.19;10416105;28;19927;-66
2022/06/03 12:52:37;;;;;;;;;;;;;;;-145.66;100.00;59599.19;10416001;28;19925;-67
2022/06/03 12:57:50;;;;;;;;;;;;;;;-145.66;100.00;59599.19;10415146;28;19943;-67
2022/06/03 13:02:56;;;;;;;;;;;;;;;-145.66;100.00;59599.19;10415768;28;19928;-66
2022/06/03 13:08:03;;;;;;;;;;;;;;;-145.66;100.00;59599.19;10415097;28;19964;-67
2022/06/03 13:13:34;;;;;;;;;;;;;;;-145.66;100.00;59599.19;10427969;28;19924;-67
2022/06/03 13:18:40;;;;;;;;;;;;;;;-145.66;100.00;59599.19;10428208;28;19921;-66
2022/06/03 13:23:44;;;;;;;;;;;;;;;-145.66;100.00;59599.19;10456658;28;19928;-66
2022/06/03 13:29:07;;;;;;;;;;;;;;;-145.66;100.00;59599.19;10456577;28;19921;-67
2022/06/03 13:34:12;;;;;;;;;;;;;;;-145.66;100.00;59599.19;10455967;28;20027;-67
2022/06/03 13:39:23;;;;;;;;;;;;;;;-145.66;100.00;59599.19;10455708;28;20307;-66
2022/06/03 13:44:47;;;;;;;;;;;;;;;-145.66;100.00;59599.19;10456147;28;20322;-66
2022/06/03 13:49:53;;;;;;;;;;;;;;;-145.66;100.00;59599.19;10456180;28;19921;-67
2022/06/03 13:55:05;;;;;;;;;;;;;;;-145.66;100.00;59599.19;10459053;28;19925;-66
2022/06/03 14:00:17;;;;;;;;;;;;;;;-145.66;100.00;59599.19;10461589;28;19920;-66
2022/06/03 14:05:30;;;;;;;;;;;;;;;-145.66;100.00;59599.19;10463064;28;20367;-67
2022/06/03 14:10:34;;;;;;;;;;;;;;;-145.66;100.00;59599.19;10463019;28;19963;-67
2022/06/03 14:15:47;;;;;;;;;;;;;;;-145.66;100.00;59599.19;10461307;28;19921;-66
2022/06/03 14:20:50;;;;;;;;;;;;;;;-145.66;100.00;59599.19;10461491;28;19921;-67
2022/06/03 14:31:14;;;;;;;;;;;;;;;-145.66;100.00;59599.19;10334343;28;19928;-57
2022/06/03 14:36:18;;;;;;;;;;;;;;;-145.66;100.00;59599.19;10338838;28;19929;-58
2022/06/03 14:41:22;;;;;;;;;;;;;;;-145.66;100.00;59599.19;10338090;28;19928;-58
2022/06/03 14:46:29;;;;;;;;;;;;;;;-145.66;100.00;59599.19;10338517;28;19929;-57
2022/06/03 14:51:33;;;;;;;;;;;;;;;-145.66;100.00;59599.19;10337761;28;19928;-58
2022/06/03 14:56:40;;;;;;;;;;;;;;;-145.66;100.00;59599.19;10336892;28;20389;-57
2022/06/03 15:01:49;;;;;;;;;;;;;;;-145.66;100.00;59599.19;10336629;28;19928;-57
2022/06/03 15:06:56;;;;;;;;;;;;;;;-145.66;100.00;59599.19;10337397;28;20369;-58
2022/06/03 15:12:05;;;;;;;;;;;;;;;-145.66;100.00;59599.19;10337441;28;20004;-58
2022/06/03 15:17:09;;;;;;;;;;;;;;;-145.66;100.00;59599.19;10337212;28;19928;-57
2022/06/03 15:22:13;;;;;;;;;;;;;;;-145.66;100.00;59599.19;10336437;28;19928;-59
2022/06/03 15:27:16;;;;;;;;;;;;;;;-145.66;100.00;59599.19;10337125;28;19928;-58
2022/06/03 15:32:18;;;;;;;;;;;;;;;-145.66;100.00;59599.19;10336681;28;20296;-57
2022/06/03 15:37:20;;;;;;;;;;;;;;;-145.66;100.00;59599.19;10335887;28;19921;-58
2022/06/03 15:42:24;;;;;;;;;;;;;;;-145.66;100.00;59599.19;10336831;28;19942;-58
2022/06/03 15:47:37;;;;;;;;;;;;;;;-145.66;100.00;59599.19;10336684;28;19922;-58
2022/06/03 15:52:40;;;;;;;;;;;;;;;-145.66;100.00;59599.19;10336573;28;19922;-58
2022/06/03 15:57:42;;;;;;;;;;;;;;;-145.66;100.00;59599.19;10335668;28;20377;-58
2022/06/03 16:03:00;;;;;;;;;;;;;;;-145.66;100.00;59599.19;10336108;28;19922;-59
2022/06/03 16:08:19;;;;;;;;;;;;;;;-145.66;100.00;59599.19;10334324;28;20012;-58
2022/06/03 16:13:24;;;;;;;;;;;;;;;-145.66;100.00;59599.19;10333936;28;19933;-58
2022/06/03 16:18:45;;;;;;;;;;;;;;;-145.66;100.00;59599.19;10334982;28;19925;-58
2022/06/03 16:23:54;;;;;;;;;;;;;;;-145.66;100.00;59599.19;10335467;28;19921;-58
2022/06/03 16:29:06;;;;;;;;;;;;;;;-145.66;100.00;59599.19;10357070;28;19921;-59
2022/06/03 16:34:29;;;;;;;;;;;;;;;-145.66;100.00;59599.19;10374282;28;19922;-59
2022/06/03 16:39:55;;;;;;;;;;;;;;;-145.66;100.00;59599.19;10374272;28;19928;-59
2022/06/03 16:44:59;;;;;;;;;;;;;;;-145.66;100.00;59599.19;10366730;28;19927;-59
2022/06/03 16:50:07;;;;;;;;;;;;;;;-145.66;100.00;59599.19;10373576;28;20372;-57
2022/06/03 16:55:15;;;;;;;;;;;;;;;-145.66;100.00;59599.19;10372936;28;19928;-57
2022/06/03 17:00:19;;;;;;;;;;;;;;;-145.66;100.00;59599.19;10374537;28;20280;-58
2022/06/03 17:05:21;;;;;;;;;;;;;;;-145.66;100.00;59599.19;10373367;28;19929;-58
2022/06/03 17:10:25;;;;;;;;;;;;;;;-145.66;100.00;59599.19;10373636;28;19937;-58
2022/06/03 17:15:32;;;;;;;;;;;;;;;-145.66;100.00;59599.19;10372807;28;19927;-57
2022/06/03 17:20:34;;;;;;;;;;;;;;;-145.66;100.00;59599.19;10371353;28;19972;-57
2022/06/03 17:25:47;;;;;;;;;;;;;;;-145.66;100.00;59599.19;10374778;28;19927;-58
2022/06/03 17:30:58;;;;;;;;;;;;;;;-145.66;100.00;59599.19;10379842;28;19928;-57
2022/06/03 17:36:19;;;;;;;;;;;;;;;-145.66;100.00;59599.19;10380574;28;19964;-58
2022/06/03 17:41:22;;;;;;;;;;;;;;;-145.66;100.00;59599.19;10382094;28;19927;-57
2022/06/03 17:46:32;;;;;;;;;;;;;;;-145.66;100.00;59599.19;10380818;28;19921;-58
2022/06/03 17:56:56;;;;;;;;;;;;;;;-145.66;100.00;59599.19;10380925;28;19928;-58
2022/06/03 18:02:04;;;;;;;;;;;;;;;-145.66;100.00;59599.19;10380146;28;19921;-57
2022/06/03 18:07:17;;;;;;;;;;;;;;;-145.66;100.00;59599.19;10380496;28;19921;-58
2022/06/03 18:12:23;;;;;;;;;;;;;;;-145.66;100.00;59599.19;10379734;28;19935;-58
2022/06/03 18:17:53;;;;;;;;;;;;;;;-145.66;100.00;59599.19;10379141;28;19925;-58
2022/06/03 18:23:14;;;;;;;;;;;;;;;-145.66;100.00;59599.19;10379340;28;19928;-58
2022/06/03 18:28:35;;;;;;;;;;;;;;;-145.66;100.00;59599.19;10378393;28;20280;-58
2022/06/03 18:33:39;;;;;;;;;;;;;;;-145.66;100.00;59599.19;10379488;28;20285;-58
2022/06/03 18:39:00;;;;;;;;;;;;;;;-145.66;100.00;59599.19;10378079;28;19947;-58
2022/06/03 18:44:02;;;;;;;;;;;;;;;-145.66;100.00;59599.19;10379197;28;19936;-58
2022/06/03 18:49:11;;;;;;;;;;;;;;;-145.66;100.00;59599.19;10378929;28;20265;-58
2022/06/03 18:54:19;;;;;;;;;;;;;;;-145.66;100.00;59599.19;10379297;28;19921;-58
2022/06/03 18:59:44;;;;;;;;;;;;;;;-145.66;100.00;59599.19;10378451;28;19936;-58
2022/06/03 19:04:48;;;;;;;;;;;;;;;-145.66;100.00;59599.19;10377297;28;20394;-58
2022/06/03 19:10:03;;;;;;;;;;;;;;;-145.66;100.00;59599.19;10378120;28;19921;-58
2022/06/03 19:15:09;;;;;;;;;;;;;;;-145.66;100.00;59599.19;10377379;28;19921;-57
2022/06/03 19:20:20;;;;;;;;;;;;;;;-145.66;100.00;59599.19;10376482;28;20380;-58
2022/06/03 19:25:29;;;;;;;;;;;;;;;-145.66;100.00;59599.19;10376984;28;19959;-57
2022/06/03 19:30:32;;;;;;;;;;;;;;;-145.66;100.00;59599.19;10376148;28;19936;-57
2022/06/03 19:35:44;;;;;;;;;;;;;;;-145.66;100.00;59599.19;10376580;28;19921;-57
2022/06/03 19:40:51;;;;;;;;;;;;;;;-145.66;100.00;59599.19;10375716;28;19921;-57
2022/06/03 19:46:05;;;;;;;;;;;;;;;-145.66;100.00;59599.19;10376249;28;19932;-57
2022/06/03 19:51:25;;;;;;;;;;;;;;;-145.66;100.00;59599.19;10376414;28;20016;-57
2022/06/03 19:56:28;;;;;;;;;;;;;;;-145.66;100.00;59599.19;10375790;28;19921;-57
2022/06/03 20:02:06;;;;;;;;;;;;;;;-145.66;100.00;59599.19;10376764;28;19921;-57
2022/06/03 20:07:13;;;;;;;;;;;;;;;-145.66;100.00;59599.19;10326373;28;19921;-57
2022/06/03 20:17:48;;;;;;;;;;;;;;;-145.66;100.00;59599.19;10376264;28;19921;-56
2022/06/03 20:22:52;;;;;;;;;;;;;;;-145.66;100.00;59599.19;10376052;28;19921;-58
2022/06/03 20:27:54;;;;;;;;;;;;;;;-145.66;100.00;59599.19;10374383;28;19922;-57
2022/06/03 20:33:08;;;;;;;;;;;;;;;-145.66;100.00;59599.19;10375100;28;19927;-57
2022/06/03 20:38:10;;;;;;;;;;;;;;;-145.66;100.00;59599.19;10374324;28;19928;-57
2022/06/03 20:43:15;;;;;;;;;;;;;;;-145.66;100.00;59599.19;10374789;28;19922;-57
2022/06/03 20:48:17;;;;;;;;;;;;;;;-145.66;100.00;59599.19;10375017;28;20008;-56
2022/06/03 20:53:29;;;;;;;;;;;;;;;-145.66;100.00;59599.19;10375414;28;19921;-57
2022/06/03 20:58:33;;;;;;;;;;;;;;;-145.66;100.00;59599.19;10374309;28;20368;-57
2022/06/03 21:14:24;;;;;;;;;;;;;;;-145.66;100.00;59599.19;10383071;28;19925;-57
2022/06/03 21:19:29;;;;;;;;;;;;;;;-145.66;100.00;59599.19;10381686;28;19925;-57
2022/06/03 21:24:46;;;;;;;;;;;;;;;-145.66;100.00;59599.19;10382886;28;19922;-56
2022/06/03 21:29:48;;;;;;;;;;;;;;;-145.66;100.00;59599.19;10382001;28;19928;-57
2022/06/03 21:35:16;;;;;;;;;;;;;;;-145.66;100.00;59599.19;10380819;28;19928;-57
2022/06/03 21:40:24;;;;;;;;;;;;;;;-145.66;100.00;59599.19;10380682;28;19929;-57
2022/06/03 21:45:46;;;;;;;;;;;;;;;-145.66;100.00;59599.19;10381008;28;20269;-57
2022/06/03 21:50:55;;;;;;;;;;;;;;;-145.66;100.00;59599.19;10381099;28;19921;-57
2022/06/03 21:56:16;;;;;;;;;;;;;;;-145.66;100.00;59599.19;10379608;28;19921;-57
2022/06/03 22:01:19;;;;;;;;;;;;;;;-145.66;100.00;59599.19;10381328;28;19921;-58
2022/06/03 22:06:21;;;;;;;;;;;;;;;-145.66;100.00;59599.19;10381173;28;19925;-57
2022/06/03 22:16:50;;;;;;;;;;;;;;;-145.66;100.00;59599.19;10378742;28;19944;-58
2022/06/03 22:21:52;;;;;;;;;;;;;;;-145.66;100.00;59599.19;10379897;28;20292;-57
2022/06/03 22:26:57;;;;;;;;;;;;;;;-145.66;100.00;59599.19;10379951;28;19921;-57
2022/06/03 22:32:09;;;;;;;;;;;;;;;-145.66;100.00;59599.19;10379033;28;19921;-58
2022/06/03 22:43:04;;;;;;;;;;;;;;;-145.66;100.00;59599.19;10378865;28;20418;-57
2022/06/03 22:48:07;;;;;;;;;;;;;;;-145.66;100.00;59599.19;10379026;28;19946;-57
2022/06/03 22:53:09;;;;;;;;;;;;;;;-145.66;100.00;59599.19;10377620;28;20004;-57
2022/06/03 22:58:14;;;;;;;;;;;;;;;-145.66;100.00;59599.19;10378904;28;19928;-57
2022/06/03 23:03:16;;;;;;;;;;;;;;;-145.66;100.00;59599.19;10378309;28;20012;-57
2022/06/03 23:08:19;;;;;;;;;;;;;;;-145.66;100.00;59599.19;10378629;28;19922;-57
2022/06/03 23:13:21;;;;;;;;;;;;;;;-145.66;100.00;59599.19;10377492;28;19921;-57
2022/06/03 23:18:23;;;;;;;;;;;;;;;-145.66;100.00;59599.19;10376273;28;19922;-57
2022/06/03 23:23:30;;;;;;;;;;;;;;;-145.66;100.00;59599.19;10376128;28;19944;-57
2022/06/03 23:28:32;;;;;;;;;;;;;;;-145.66;100.00;59599.19;10376329;28;19922;-57
2022/06/03 23:33:35;;;;;;;;;;;;;;;-145.66;100.00;59599.19;10376695;28;19925;-57
2022/06/03 23:38:37;;;;;;;;;;;;;;;-145.66;100.00;59599.19;10377375;28;19928;-57
2022/06/03 23:49:00;;;;;;;;;;;;;;;-145.66;100.00;59599.19;10376704;28;20372;-57
2022/06/03 23:54:03;;;;;;;;;;;;;;;-145.66;100.00;59599.19;10375237;28;19922;-57
2022/06/03 23:59:05;;;;;;;;;;;;;;;-145.66;100.00;59599.19;10375807;28;20423;-57
